sensor_id;sensor_type;location;lat;lon;timestamp;P1;durP1;ratioP1;P2;durP2;ratioP2
29838;SDS011;18669;53.356;-1.464;2022-09-12T00:00:05;6.70;;;1.52;;
29838;SDS011;18669;53.356;-1.464;2022-09-12T00:02:34;2.88;;;1.60;;
29838;SDS011;18669;53.356;-1.464;2022-09-12T00:05:00;2.63;;;1.55;;
29838;SDS011;18669;53.356;-1.464;2022-09-12T00:07:26;2.65;;;1.40;;
29838;SDS011;18669;53.356;-1.464;2022-09-12T00:09:52;2.90;;;1.70;;
29838;SDS011;18669;53.356;-1.464;2022-09-12T00:12:21;4.72;;;1.77;;
29838;SDS011;18669;53.356;-1.464;2022-09-12T00:14:47;3.60;;;1.50;;
29838;SDS011;18669;53.356;-1.464;2022-09-12T00:17:13;3.92;;;1.60;;
29838;SDS011;18669;53.356;-1.464;2022-09-12T00:19:39;3.13;;;1.70;;
29838;SDS011;18669;53.356;-1.464;2022-09-12T00:22:05;3.35;;;1.55;;
29838;SDS011;18669;53.356;-1.464;2022-09-12T00:24:32;3.03;;;2.13;;
29838;SDS011;18669;53.356;-1.464;2022-09-12T00:26:58;4.18;;;1.80;;
29838;SDS011;18669;53.356;-1.464;2022-09-12T00:29:24;5.20;;;1.77;;
29838;SDS011;18669;53.356;-1.464;2022-09-12T00:31:50;3.20;;;1.80;;
29838;SDS011;18669;53.356;-1.464;2022-09-12T00:34:16;2.88;;;1.80;;
29838;SDS011;18669;53.356;-1.464;2022-09-12T00:36:43;3.33;;;1.70;;
29838;SDS011;18669;53.356;-1.464;2022-09-12T00:39:09;3.30;;;1.80;;
29838;SDS011;18669;53.356;-1.464;2022-09-12T00:41:39;4.25;;;1.80;;
29838;SDS011;18669;53.356;-1.464;2022-09-12T00:49:10;3.22;;;2.08;;
29838;SDS011;18669;53.356;-1.464;2022-09-12T00:51:40;7.00;;;2.20;;
29838;SDS011;18669;53.356;-1.464;2022-09-12T00:54:20;8.13;;;2.15;;
29838;SDS011;18669;53.356;-1.464;2022-09-12T00:56:50;6.10;;;2.05;;
29838;SDS011;18669;53.356;-1.464;2022-09-12T00:59:21;2.70;;;2.10;;
29838;SDS011;18669;53.356;-1.464;2022-09-12T01:01:52;4.57;;;2.53;;
29838;SDS011;18669;53.356;-1.464;2022-09-12T01:04:20;5.38;;;2.28;;
29838;SDS011;18669;53.356;-1.464;2022-09-12T01:06:47;2.55;;;2.00;;
29838;SDS011;18669;53.356;-1.464;2022-09-12T01:09:16;6.72;;;2.40;;
29838;SDS011;18669;53.356;-1.464;2022-09-12T01:11:45;4.68;;;2.40;;
29838;SDS011;18669;53.356;-1.464;2022-09-12T01:14:14;7.25;;;2.25;;
29838;SDS011;18669;53.356;-1.464;2022-09-12T01:16:41;7.00;;;2.53;;
29838;SDS011;18669;53.356;-1.464;2022-09-12T01:36:17;3.50;;;2.83;;
29838;SDS011;18669;53.356;-1.464;2022-09-12T01:41:39;7.50;;;3.30;;
29838;SDS011;18669;53.356;-1.464;2022-09-12T01:44:35;6.70;;;3.35;;
29838;SDS011;18669;53.356;-1.464;2022-09-12T01:47:20;8.27;;;4.20;;
29838;SDS011;18669;53.356;-1.464;2022-09-12T02:00:29;6.78;;;3.50;;
29838;SDS011;18669;53.356;-1.464;2022-09-12T02:03:11;6.25;;;3.53;;
29838;SDS011;18669;53.356;-1.464;2022-09-12T02:05:55;3.95;;;3.40;;
29838;SDS011;18669;53.356;-1.464;2022-09-12T02:08:34;9.93;;;3.60;;
29838;SDS011;18669;53.356;-1.464;2022-09-12T02:11:07;6.68;;;3.75;;
29838;SDS011;18669;53.356;-1.464;2022-09-12T02:16:11;4.82;;;3.70;;
29838;SDS011;18669;53.356;-1.464;2022-09-12T02:18:46;5.23;;;4.10;;
29838;SDS011;18669;53.356;-1.464;2022-09-12T02:21:18;4.22;;;3.70;;
29838;SDS011;18669;53.356;-1.464;2022-09-12T02:23:49;7.90;;;4.15;;
29838;SDS011;18669;53.356;-1.464;2022-09-12T02:26:23;7.15;;;4.38;;
29838;SDS011;18669;53.356;-1.464;2022-09-12T02:28:55;8.45;;;4.20;;
29838;SDS011;18669;53.356;-1.464;2022-09-12T02:31:30;5.57;;;4.38;;
29838;SDS011;18669;53.356;-1.464;2022-09-12T02:37:06;10.93;;;4.60;;
29838;SDS011;18669;53.356;-1.464;2022-09-12T02:39:55;9.98;;;4.50;;
29838;SDS011;18669;53.356;-1.464;2022-09-12T02:42:22;11.20;;;5.15;;
29838;SDS011;18669;53.356;-1.464;2022-09-12T02:44:49;8.18;;;5.95;;
29838;SDS011;18669;53.356;-1.464;2022-09-12T02:47:27;8.70;;;4.88;;
29838;SDS011;18669;53.356;-1.464;2022-09-12T02:49:59;8.82;;;5.38;;
29838;SDS011;18669;53.356;-1.464;2022-09-12T02:52:26;6.38;;;5.75;;
29838;SDS011;18669;53.356;-1.464;2022-09-12T02:54:54;7.82;;;5.47;;
29838;SDS011;18669;53.356;-1.464;2022-09-12T02:57:22;8.65;;;5.15;;
29838;SDS011;18669;53.356;-1.464;2022-09-12T02:59:50;9.07;;;6.07;;
29838;SDS011;18669;53.356;-1.464;2022-09-12T03:10:48;10.85;;;6.55;;
29838;SDS011;18669;53.356;-1.464;2022-09-12T03:19:35;8.57;;;5.85;;
29838;SDS011;18669;53.356;-1.464;2022-09-12T03:22:12;9.05;;;6.10;;
29838;SDS011;18669;53.356;-1.464;2022-09-12T03:27:26;8.82;;;6.15;;
29838;SDS011;18669;53.356;-1.464;2022-09-12T03:29:57;9.43;;;6.40;;
29838;SDS011;18669;53.356;-1.464;2022-09-12T03:32:40;10.77;;;6.53;;
29838;SDS011;18669;53.356;-1.464;2022-09-12T03:35:14;12.80;;;6.70;;
29838;SDS011;18669;53.356;-1.464;2022-09-12T03:37:42;8.48;;;6.10;;
29838;SDS011;18669;53.356;-1.464;2022-09-12T03:40:08;10.75;;;6.72;;
29838;SDS011;18669;53.356;-1.464;2022-09-12T03:42:36;10.65;;;6.90;;
29838;SDS011;18669;53.356;-1.464;2022-09-12T03:45:06;10.95;;;7.45;;
29838;SDS011;18669;53.356;-1.464;2022-09-12T03:47:33;8.50;;;6.88;;
29838;SDS011;18669;53.356;-1.464;2022-09-12T03:50:00;11.73;;;7.05;;
29838;SDS011;18669;53.356;-1.464;2022-09-12T03:52:27;11.55;;;7.18;;
29838;SDS011;18669;53.356;-1.464;2022-09-12T03:54:53;12.27;;;7.18;;
29838;SDS011;18669;53.356;-1.464;2022-09-12T03:57:20;12.82;;;7.45;;
29838;SDS011;18669;53.356;-1.464;2022-09-12T03:59:47;12.85;;;7.35;;
29838;SDS011;18669;53.356;-1.464;2022-09-12T04:02:14;14.32;;;7.93;;
29838;SDS011;18669;53.356;-1.464;2022-09-12T04:04:41;10.23;;;7.57;;
29838;SDS011;18669;53.356;-1.464;2022-09-12T04:07:09;13.50;;;7.93;;
29838;SDS011;18669;53.356;-1.464;2022-09-12T04:09:35;10.18;;;7.80;;
29838;SDS011;18669;53.356;-1.464;2022-09-12T04:12:02;13.18;;;8.23;;
29838;SDS011;18669;53.356;-1.464;2022-09-12T04:14:29;12.38;;;8.23;;
29838;SDS011;18669;53.356;-1.464;2022-09-12T04:16:55;13.38;;;7.63;;
29838;SDS011;18669;53.356;-1.464;2022-09-12T04:19:21;10.00;;;7.47;;
29838;SDS011;18669;53.356;-1.464;2022-09-12T04:21:48;8.68;;;7.53;;
29838;SDS011;18669;53.356;-1.464;2022-09-12T04:24:14;11.68;;;8.00;;
29838;SDS011;18669;53.356;-1.464;2022-09-12T04:26:40;8.90;;;7.72;;
29838;SDS011;18669;53.356;-1.464;2022-09-12T04:29:07;9.52;;;7.72;;
29838;SDS011;18669;53.356;-1.464;2022-09-12T04:31:36;12.48;;;7.63;;
29838;SDS011;18669;53.356;-1.464;2022-09-12T04:34:02;11.70;;;8.23;;
29838;SDS011;18669;53.356;-1.464;2022-09-12T04:36:28;11.90;;;7.93;;
29838;SDS011;18669;53.356;-1.464;2022-09-12T04:38:55;12.15;;;8.15;;
29838;SDS011;18669;53.356;-1.464;2022-09-12T04:41:22;11.27;;;7.40;;
29838;SDS011;18669;53.356;-1.464;2022-09-12T04:43:51;12.82;;;7.97;;
29838;SDS011;18669;53.356;-1.464;2022-09-12T04:46:29;11.38;;;7.25;;
29838;SDS011;18669;53.356;-1.464;2022-09-12T04:48:57;15.02;;;7.82;;
29838;SDS011;18669;53.356;-1.464;2022-09-12T04:51:24;10.27;;;7.65;;
29838;SDS011;18669;53.356;-1.464;2022-09-12T04:53:53;9.88;;;7.35;;
29838;SDS011;18669;53.356;-1.464;2022-09-12T04:56:25;9.20;;;7.55;;
29838;SDS011;18669;53.356;-1.464;2022-09-12T04:58:52;13.23;;;7.75;;
29838;SDS011;18669;53.356;-1.464;2022-09-12T05:01:21;12.52;;;8.20;;
29838;SDS011;18669;53.356;-1.464;2022-09-12T05:03:48;10.70;;;7.50;;
29838;SDS011;18669;53.356;-1.464;2022-09-12T05:06:16;11.90;;;7.60;;
29838;SDS011;18669;53.356;-1.464;2022-09-12T05:08:44;11.20;;;7.38;;
29838;SDS011;18669;53.356;-1.464;2022-09-12T05:11:13;12.15;;;7.43;;
29838;SDS011;18669;53.356;-1.464;2022-09-12T05:13:40;9.27;;;6.45;;
29838;SDS011;18669;53.356;-1.464;2022-09-12T05:16:08;14.38;;;7.85;;
29838;SDS011;18669;53.356;-1.464;2022-09-12T05:18:37;12.07;;;7.50;;
29838;SDS011;18669;53.356;-1.464;2022-09-12T05:21:05;14.85;;;10.15;;
29838;SDS011;18669;53.356;-1.464;2022-09-12T05:23:34;20.08;;;10.82;;
29838;SDS011;18669;53.356;-1.464;2022-09-12T05:26:01;9.95;;;7.05;;
29838;SDS011;18669;53.356;-1.464;2022-09-12T05:28:30;11.68;;;6.82;;
29838;SDS011;18669;53.356;-1.464;2022-09-12T05:31:08;9.05;;;6.60;;
29838;SDS011;18669;53.356;-1.464;2022-09-12T05:33:38;16.30;;;6.75;;
29838;SDS011;18669;53.356;-1.464;2022-09-12T05:36:06;9.25;;;6.72;;
29838;SDS011;18669;53.356;-1.464;2022-09-12T05:38:34;11.82;;;7.00;;
29838;SDS011;18669;53.356;-1.464;2022-09-12T05:43:34;12.77;;;7.70;;
29838;SDS011;18669;53.356;-1.464;2022-09-12T05:46:04;8.73;;;6.35;;
29838;SDS011;18669;53.356;-1.464;2022-09-12T05:48:35;10.13;;;6.60;;
29838;SDS011;18669;53.356;-1.464;2022-09-12T05:51:02;10.23;;;6.35;;
29838;SDS011;18669;53.356;-1.464;2022-09-12T05:53:34;8.60;;;7.07;;
29838;SDS011;18669;53.356;-1.464;2022-09-12T05:56:03;7.82;;;6.03;;
29838;SDS011;18669;53.356;-1.464;2022-09-12T05:58:34;12.98;;;6.05;;
29838;SDS011;18669;53.356;-1.464;2022-09-12T06:01:03;8.13;;;5.70;;
29838;SDS011;18669;53.356;-1.464;2022-09-12T06:03:48;6.35;;;5.50;;
29838;SDS011;18669;53.356;-1.464;2022-09-12T06:06:17;10.43;;;5.30;;
29838;SDS011;18669;53.356;-1.464;2022-09-12T06:08:45;7.07;;;5.63;;
29838;SDS011;18669;53.356;-1.464;2022-09-12T06:11:14;11.35;;;6.30;;
29838;SDS011;18669;53.356;-1.464;2022-09-12T06:13:42;11.10;;;5.85;;
29838;SDS011;18669;53.356;-1.464;2022-09-12T06:16:13;7.75;;;5.78;;
29838;SDS011;18669;53.356;-1.464;2022-09-12T06:18:41;6.78;;;5.65;;
29838;SDS011;18669;53.356;-1.464;2022-09-12T06:21:12;8.05;;;5.60;;
29838;SDS011;18669;53.356;-1.464;2022-09-12T06:23:38;7.45;;;5.90;;
29838;SDS011;18669;53.356;-1.464;2022-09-12T06:26:06;8.65;;;5.63;;
29838;SDS011;18669;53.356;-1.464;2022-09-12T06:28:34;8.85;;;5.85;;
29838;SDS011;18669;53.356;-1.464;2022-09-12T06:31:03;7.97;;;5.72;;
29838;SDS011;18669;53.356;-1.464;2022-09-12T06:33:37;8.15;;;5.93;;
29838;SDS011;18669;53.356;-1.464;2022-09-12T06:36:09;11.18;;;6.05;;
29838;SDS011;18669;53.356;-1.464;2022-09-12T06:38:40;9.18;;;6.20;;
29838;SDS011;18669;53.356;-1.464;2022-09-12T06:41:08;9.18;;;6.40;;
29838;SDS011;18669;53.356;-1.464;2022-09-12T06:43:39;8.90;;;5.95;;
29838;SDS011;18669;53.356;-1.464;2022-09-12T06:46:06;10.20;;;5.95;;
29838;SDS011;18669;53.356;-1.464;2022-09-12T06:48:33;10.18;;;6.00;;
29838;SDS011;18669;53.356;-1.464;2022-09-12T06:51:06;9.15;;;5.82;;
29838;SDS011;18669;53.356;-1.464;2022-09-12T06:53:35;12.25;;;6.88;;
29838;SDS011;18669;53.356;-1.464;2022-09-12T06:56:03;8.38;;;6.43;;
29838;SDS011;18669;53.356;-1.464;2022-09-12T06:58:35;7.57;;;5.22;;
29838;SDS011;18669;53.356;-1.464;2022-09-12T07:01:03;9.68;;;5.25;;
29838;SDS011;18669;53.356;-1.464;2022-09-12T07:03:34;8.85;;;5.97;;
29838;SDS011;18669;53.356;-1.464;2022-09-12T07:06:02;8.27;;;5.18;;
29838;SDS011;18669;53.356;-1.464;2022-09-12T07:08:32;9.35;;;6.30;;
29838;SDS011;18669;53.356;-1.464;2022-09-12T07:11:07;9.65;;;5.60;;
29838;SDS011;18669;53.356;-1.464;2022-09-12T07:13:42;9.48;;;5.78;;
29838;SDS011;18669;53.356;-1.464;2022-09-12T07:16:09;9.38;;;5.30;;
29838;SDS011;18669;53.356;-1.464;2022-09-12T07:18:37;11.35;;;5.95;;
29838;SDS011;18669;53.356;-1.464;2022-09-12T07:21:05;8.95;;;5.13;;
29838;SDS011;18669;53.356;-1.464;2022-09-12T07:23:33;9.18;;;5.70;;
29838;SDS011;18669;53.356;-1.464;2022-09-12T07:25:59;10.55;;;6.20;;
29838;SDS011;18669;53.356;-1.464;2022-09-12T07:28:27;10.98;;;6.03;;
29838;SDS011;18669;53.356;-1.464;2022-09-12T07:30:56;8.45;;;5.30;;
29838;SDS011;18669;53.356;-1.464;2022-09-12T07:33:23;9.07;;;5.63;;
29838;SDS011;18669;53.356;-1.464;2022-09-12T07:35:53;8.52;;;5.45;;
29838;SDS011;18669;53.356;-1.464;2022-09-12T07:38:19;8.05;;;5.40;;
29838;SDS011;18669;53.356;-1.464;2022-09-12T07:40:46;8.55;;;5.65;;
29838;SDS011;18669;53.356;-1.464;2022-09-12T07:43:12;11.55;;;5.60;;
29838;SDS011;18669;53.356;-1.464;2022-09-12T07:45:38;6.05;;;4.93;;
29838;SDS011;18669;53.356;-1.464;2022-09-12T07:48:07;8.27;;;5.28;;
29838;SDS011;18669;53.356;-1.464;2022-09-12T07:50:34;8.27;;;5.53;;
29838;SDS011;18669;53.356;-1.464;2022-09-12T07:53:02;7.28;;;5.15;;
29838;SDS011;18669;53.356;-1.464;2022-09-12T07:55:28;11.13;;;5.18;;
29838;SDS011;18669;53.356;-1.464;2022-09-12T07:57:54;8.50;;;4.90;;
29838;SDS011;18669;53.356;-1.464;2022-09-12T08:00:21;6.82;;;5.35;;
29838;SDS011;18669;53.356;-1.464;2022-09-12T08:02:51;7.43;;;5.00;;
29838;SDS011;18669;53.356;-1.464;2022-09-12T08:05:18;5.97;;;4.38;;
29838;SDS011;18669;53.356;-1.464;2022-09-12T08:07:45;6.30;;;5.00;;
29838;SDS011;18669;53.356;-1.464;2022-09-12T08:10:12;11.35;;;4.47;;
29838;SDS011;18669;53.356;-1.464;2022-09-12T08:12:38;8.90;;;4.13;;
29838;SDS011;18669;53.356;-1.464;2022-09-12T08:15:04;7.50;;;3.95;;
29838;SDS011;18669;53.356;-1.464;2022-09-12T08:17:31;6.13;;;3.95;;
29838;SDS011;18669;53.356;-1.464;2022-09-12T08:19:57;5.45;;;3.60;;
29838;SDS011;18669;53.356;-1.464;2022-09-12T08:22:24;5.53;;;3.50;;
29838;SDS011;18669;53.356;-1.464;2022-09-12T08:24:51;5.13;;;3.50;;
29838;SDS011;18669;53.356;-1.464;2022-09-12T08:27:17;8.88;;;4.78;;
29838;SDS011;18669;53.356;-1.464;2022-09-12T08:29:43;7.20;;;4.43;;
29838;SDS011;18669;53.356;-1.464;2022-09-12T08:32:09;6.88;;;3.15;;
29838;SDS011;18669;53.356;-1.464;2022-09-12T08:34:36;4.53;;;3.20;;
29838;SDS011;18669;53.356;-1.464;2022-09-12T08:37:02;8.68;;;3.35;;
29838;SDS011;18669;53.356;-1.464;2022-09-12T08:39:28;6.50;;;3.33;;
29838;SDS011;18669;53.356;-1.464;2022-09-12T08:41:57;5.15;;;2.70;;
29838;SDS011;18669;53.356;-1.464;2022-09-12T08:50:01;6.25;;;2.33;;
29838;SDS011;18669;53.356;-1.464;2022-09-12T08:52:47;7.63;;;3.72;;
29838;SDS011;18669;53.356;-1.464;2022-09-12T08:55:29;7.07;;;3.30;;
29838;SDS011;18669;53.356;-1.464;2022-09-12T08:57:58;8.85;;;3.50;;
29838;SDS011;18669;53.356;-1.464;2022-09-12T09:00:31;8.57;;;3.92;;
29838;SDS011;18669;53.356;-1.464;2022-09-12T09:06:33;5.50;;;1.73;;
29838;SDS011;18669;53.356;-1.464;2022-09-12T09:17:15;4.32;;;1.67;;
29838;SDS011;18669;53.356;-1.464;2022-09-12T09:19:52;2.90;;;1.65;;
29838;SDS011;18669;53.356;-1.464;2022-09-12T09:22:32;4.07;;;1.40;;
29838;SDS011;18669;53.356;-1.464;2022-09-12T09:25:10;2.03;;;1.50;;
29838;SDS011;18669;53.356;-1.464;2022-09-12T09:27:44;4.43;;;1.67;;
29838;SDS011;18669;53.356;-1.464;2022-09-12T09:30:17;1.35;;;1.25;;
29838;SDS011;18669;53.356;-1.464;2022-09-12T09:32:48;1.65;;;1.40;;
29838;SDS011;18669;53.356;-1.464;2022-09-12T09:41:25;2.08;;;1.20;;
29838;SDS011;18669;53.356;-1.464;2022-09-12T09:44:14;3.55;;;1.15;;
29838;SDS011;18669;53.356;-1.464;2022-09-12T09:46:41;4.03;;;1.40;;
29838;SDS011;18669;53.356;-1.464;2022-09-12T09:49:08;2.00;;;1.20;;
29838;SDS011;18669;53.356;-1.464;2022-09-12T09:51:39;1.02;;;0.93;;
29838;SDS011;18669;53.356;-1.464;2022-09-12T09:56:42;1.17;;;1.03;;
29838;SDS011;18669;53.356;-1.464;2022-09-12T10:04:33;2.65;;;1.30;;
29838;SDS011;18669;53.356;-1.464;2022-09-12T10:07:03;1.23;;;1.13;;
29838;SDS011;18669;53.356;-1.464;2022-09-12T10:09:32;2.53;;;1.30;;
29838;SDS011;18669;53.356;-1.464;2022-09-12T10:12:00;3.28;;;1.40;;
29838;SDS011;18669;53.356;-1.464;2022-09-12T10:14:44;1.58;;;1.15;;
29838;SDS011;18669;53.356;-1.464;2022-09-12T10:17:24;5.22;;;1.13;;
29838;SDS011;18669;53.356;-1.464;2022-09-12T10:19:54;3.08;;;1.23;;
29838;SDS011;18669;53.356;-1.464;2022-09-12T10:22:22;1.45;;;1.20;;
29838;SDS011;18669;53.356;-1.464;2022-09-12T10:24:55;2.25;;;1.00;;
29838;SDS011;18669;53.356;-1.464;2022-09-12T10:27:24;1.67;;;1.10;;
29838;SDS011;18669;53.356;-1.464;2022-09-12T10:32:28;2.65;;;1.13;;
29838;SDS011;18669;53.356;-1.464;2022-09-12T10:35:00;2.00;;;1.20;;
29838;SDS011;18669;53.356;-1.464;2022-09-12T10:37:29;3.53;;;1.40;;
29838;SDS011;18669;53.356;-1.464;2022-09-12T10:39:58;3.85;;;1.52;;
29838;SDS011;18669;53.356;-1.464;2022-09-12T10:42:45;2.63;;;1.10;;
29838;SDS011;18669;53.356;-1.464;2022-09-12T10:45:22;10.98;;;1.55;;
29838;SDS011;18669;53.356;-1.464;2022-09-12T10:47:57;5.45;;;1.63;;
29838;SDS011;18669;53.356;-1.464;2022-09-12T10:50:37;1.98;;;1.33;;
29838;SDS011;18669;53.356;-1.464;2022-09-12T10:53:51;1.90;;;1.05;;
29838;SDS011;18669;53.356;-1.464;2022-09-12T10:56:17;1.60;;;1.13;;
29838;SDS011;18669;53.356;-1.464;2022-09-12T11:09:23;2.67;;;1.10;;
29838;SDS011;18669;53.356;-1.464;2022-09-12T11:26:13;2.38;;;1.17;;
29838;SDS011;18669;53.356;-1.464;2022-09-12T11:29:10;5.20;;;1.33;;
29838;SDS011;18669;53.356;-1.464;2022-09-12T11:37:28;7.50;;;1.10;;
29838;SDS011;18669;53.356;-1.464;2022-09-12T11:40:25;1.35;;;0.90;;
29838;SDS011;18669;53.356;-1.464;2022-09-12T11:43:52;1.52;;;1.00;;
29838;SDS011;18669;53.356;-1.464;2022-09-12T11:46:38;3.03;;;1.33;;
29838;SDS011;18669;53.356;-1.464;2022-09-12T11:59:57;3.55;;;1.30;;
29838;SDS011;18669;53.356;-1.464;2022-09-12T12:02:25;4.32;;;0.95;;
29838;SDS011;18669;53.356;-1.464;2022-09-12T12:08:01;1.23;;;1.00;;
29838;SDS011;18669;53.356;-1.464;2022-09-12T12:10:40;1.80;;;1.00;;
29838;SDS011;18669;53.356;-1.464;2022-09-12T12:13:20;2.80;;;1.10;;
29838;SDS011;18669;53.356;-1.464;2022-09-12T12:15:53;5.93;;;3.22;;
29838;SDS011;18669;53.356;-1.464;2022-09-12T12:18:26;1.98;;;1.17;;
29838;SDS011;18669;53.356;-1.464;2022-09-12T12:20:54;2.97;;;1.20;;
29838;SDS011;18669;53.356;-1.464;2022-09-12T12:23:31;3.80;;;1.33;;
29838;SDS011;18669;53.356;-1.464;2022-09-12T12:26:00;1.98;;;1.23;;
29838;SDS011;18669;53.356;-1.464;2022-09-12T12:31:06;5.10;;;1.25;;
29838;SDS011;18669;53.356;-1.464;2022-09-12T12:36:05;2.42;;;1.40;;
29838;SDS011;18669;53.356;-1.464;2022-09-12T12:38:37;1.42;;;1.13;;
29838;SDS011;18669;53.356;-1.464;2022-09-12T12:43:43;2.05;;;1.13;;
29838;SDS011;18669;53.356;-1.464;2022-09-12T12:46:20;3.75;;;0.90;;
29838;SDS011;18669;53.356;-1.464;2022-09-12T12:49:00;0.70;;;0.70;;
29838;SDS011;18669;53.356;-1.464;2022-09-12T12:51:33;2.05;;;0.90;;
29838;SDS011;18669;53.356;-1.464;2022-09-12T12:54:27;1.42;;;0.80;;
29838;SDS011;18669;53.356;-1.464;2022-09-12T12:57:03;0.80;;;0.70;;
29838;SDS011;18669;53.356;-1.464;2022-09-12T12:59:59;1.00;;;0.50;;
29838;SDS011;18669;53.356;-1.464;2022-09-12T13:05:02;1.75;;;0.60;;
29838;SDS011;18669;53.356;-1.464;2022-09-12T13:07:34;0.40;;;0.40;;
29838;SDS011;18669;53.356;-1.464;2022-09-12T13:10:04;0.40;;;0.40;;
29838;SDS011;18669;53.356;-1.464;2022-09-12T13:12:34;0.75;;;0.50;;
29838;SDS011;18669;53.356;-1.464;2022-09-12T13:15:54;0.65;;;0.30;;
29838;SDS011;18669;53.356;-1.464;2022-09-12T13:18:01;3.13;;;0.70;;
29838;SDS011;18669;53.356;-1.464;2022-09-12T13:20:31;0.40;;;0.40;;
29838;SDS011;18669;53.356;-1.464;2022-09-12T13:23:02;2.00;;;0.60;;
29838;SDS011;18669;53.356;-1.464;2022-09-12T13:25:30;0.70;;;0.60;;
29838;SDS011;18669;53.356;-1.464;2022-09-12T13:27:59;0.75;;;0.40;;
29838;SDS011;18669;53.356;-1.464;2022-09-12T13:30:27;0.77;;;0.40;;
29838;SDS011;18669;53.356;-1.464;2022-09-12T13:32:57;2.67;;;1.20;;
29838;SDS011;18669;53.356;-1.464;2022-09-12T13:38:35;1.80;;;0.68;;
29838;SDS011;18669;53.356;-1.464;2022-09-12T13:43:57;1.05;;;0.45;;
29838;SDS011;18669;53.356;-1.464;2022-09-12T13:46:29;1.98;;;0.70;;
29838;SDS011;18669;53.356;-1.464;2022-09-12T13:49:00;2.95;;;0.70;;
29838;SDS011;18669;53.356;-1.464;2022-09-12T13:51:31;1.60;;;0.70;;
29838;SDS011;18669;53.356;-1.464;2022-09-12T13:53:58;1.48;;;0.77;;
29838;SDS011;18669;53.356;-1.464;2022-09-12T13:56:28;3.25;;;1.65;;
29838;SDS011;18669;53.356;-1.464;2022-09-12T13:58:58;2.95;;;2.17;;
29838;SDS011;18669;53.356;-1.464;2022-09-12T14:01:39;2.38;;;0.80;;
29838;SDS011;18669;53.356;-1.464;2022-09-12T14:07:01;0.75;;;0.70;;
29838;SDS011;18669;53.356;-1.464;2022-09-12T14:09:52;1.75;;;0.80;;
29838;SDS011;18669;53.356;-1.464;2022-09-12T14:12:24;1.85;;;0.65;;
29838;SDS011;18669;53.356;-1.464;2022-09-12T14:15:00;7.32;;;1.02;;
29838;SDS011;18669;53.356;-1.464;2022-09-12T14:20:06;1.52;;;0.80;;
29838;SDS011;18669;53.356;-1.464;2022-09-12T14:22:36;1.67;;;0.70;;
29838;SDS011;18669;53.356;-1.464;2022-09-12T14:25:03;2.20;;;0.80;;
29838;SDS011;18669;53.356;-1.464;2022-09-12T14:27:47;1.20;;;0.70;;
29838;SDS011;18669;53.356;-1.464;2022-09-12T14:30:30;3.42;;;0.80;;
29838;SDS011;18669;53.356;-1.464;2022-09-12T14:35:36;0.88;;;0.70;;
29838;SDS011;18669;53.356;-1.464;2022-09-12T14:40:42;6.63;;;1.10;;
29838;SDS011;18669;53.356;-1.464;2022-09-12T14:43:20;2.85;;;0.73;;
29838;SDS011;18669;53.356;-1.464;2022-09-12T14:45:54;3.28;;;0.93;;
29838;SDS011;18669;53.356;-1.464;2022-09-12T14:48:24;1.50;;;0.80;;
29838;SDS011;18669;53.356;-1.464;2022-09-12T14:50:55;1.00;;;0.50;;
29838;SDS011;18669;53.356;-1.464;2022-09-12T14:53:24;3.70;;;0.65;;
29838;SDS011;18669;53.356;-1.464;2022-09-12T14:56:09;1.88;;;0.90;;
29838;SDS011;18669;53.356;-1.464;2022-09-12T14:58:37;1.67;;;0.73;;
29838;SDS011;18669;53.356;-1.464;2022-09-12T15:06:00;3.08;;;0.93;;
29838;SDS011;18669;53.356;-1.464;2022-09-12T15:08:29;1.38;;;0.60;;
29838;SDS011;18669;53.356;-1.464;2022-09-12T15:10:57;1.65;;;0.88;;
29838;SDS011;18669;53.356;-1.464;2022-09-12T15:13:25;2.15;;;0.88;;
29838;SDS011;18669;53.356;-1.464;2022-09-12T15:15:56;1.63;;;1.02;;
29838;SDS011;18669;53.356;-1.464;2022-09-12T15:18:24;1.75;;;0.80;;
29838;SDS011;18669;53.356;-1.464;2022-09-12T15:20:58;3.30;;;1.88;;
29838;SDS011;18669;53.356;-1.464;2022-09-12T15:26:00;3.75;;;3.10;;
29838;SDS011;18669;53.356;-1.464;2022-09-12T15:28:28;2.88;;;2.10;;
29838;SDS011;18669;53.356;-1.464;2022-09-12T15:30:55;1.02;;;1.00;;
29838;SDS011;18669;53.356;-1.464;2022-09-12T15:33:24;1.67;;;1.10;;
29838;SDS011;18669;53.356;-1.464;2022-09-12T15:35:50;5.60;;;1.60;;
29838;SDS011;18669;53.356;-1.464;2022-09-12T15:38:17;2.15;;;0.82;;
29838;SDS011;18669;53.356;-1.464;2022-09-12T15:40:44;2.40;;;1.52;;
29838;SDS011;18669;53.356;-1.464;2022-09-12T15:43:17;3.97;;;1.42;;
29838;SDS011;18669;53.356;-1.464;2022-09-12T15:45:43;1.92;;;1.02;;
29838;SDS011;18669;53.356;-1.464;2022-09-12T15:48:11;1.40;;;1.00;;
29838;SDS011;18669;53.356;-1.464;2022-09-12T15:50:39;2.55;;;1.35;;
29838;SDS011;18669;53.356;-1.464;2022-09-12T15:53:07;2.55;;;1.67;;
29838;SDS011;18669;53.356;-1.464;2022-09-12T15:55:43;3.38;;;1.58;;
29838;SDS011;18669;53.356;-1.464;2022-09-12T15:58:09;4.40;;;1.00;;
29838;SDS011;18669;53.356;-1.464;2022-09-12T16:00:36;3.10;;;1.30;;
29838;SDS011;18669;53.356;-1.464;2022-09-12T16:03:02;2.25;;;1.15;;
29838;SDS011;18669;53.356;-1.464;2022-09-12T16:05:29;0.80;;;0.80;;
29838;SDS011;18669;53.356;-1.464;2022-09-12T16:07:55;2.42;;;1.10;;
29838;SDS011;18669;53.356;-1.464;2022-09-12T16:10:22;1.42;;;1.20;;
29838;SDS011;18669;53.356;-1.464;2022-09-12T16:12:53;1.73;;;0.98;;
29838;SDS011;18669;53.356;-1.464;2022-09-12T16:15:20;2.83;;;0.60;;
29838;SDS011;18669;53.356;-1.464;2022-09-12T16:17:49;0.75;;;0.75;;
29838;SDS011;18669;53.356;-1.464;2022-09-12T16:20:16;0.70;;;0.70;;
29838;SDS011;18669;53.356;-1.464;2022-09-12T16:22:44;6.38;;;2.60;;
29838;SDS011;18669;53.356;-1.464;2022-09-12T16:25:10;1.40;;;1.30;;
29838;SDS011;18669;53.356;-1.464;2022-09-12T16:27:36;1.17;;;1.08;;
29838;SDS011;18669;53.356;-1.464;2022-09-12T16:30:03;2.20;;;1.30;;
29838;SDS011;18669;53.356;-1.464;2022-09-12T16:32:30;3.67;;;1.40;;
29838;SDS011;18669;53.356;-1.464;2022-09-12T16:34:57;6.07;;;3.03;;
29838;SDS011;18669;53.356;-1.464;2022-09-12T16:37:23;3.63;;;3.33;;
29838;SDS011;18669;53.356;-1.464;2022-09-12T16:39:49;5.32;;;4.13;;
29838;SDS011;18669;53.356;-1.464;2022-09-12T16:42:17;2.20;;;2.00;;
29838;SDS011;18669;53.356;-1.464;2022-09-12T16:44:46;1.58;;;1.00;;
29838;SDS011;18669;53.356;-1.464;2022-09-12T16:47:13;4.00;;;1.08;;
29838;SDS011;18669;53.356;-1.464;2022-09-12T16:49:40;1.50;;;0.98;;
29838;SDS011;18669;53.356;-1.464;2022-09-12T16:52:06;0.90;;;0.90;;
29838;SDS011;18669;53.356;-1.464;2022-09-12T16:54:33;1.15;;;0.95;;
29838;SDS011;18669;53.356;-1.464;2022-09-12T16:56:59;4.50;;;1.15;;
29838;SDS011;18669;53.356;-1.464;2022-09-12T16:59:25;1.85;;;1.20;;
29838;SDS011;18669;53.356;-1.464;2022-09-12T17:01:52;8.95;;;6.55;;
29838;SDS011;18669;53.356;-1.464;2022-09-12T17:04:18;4.70;;;3.83;;
29838;SDS011;18669;53.356;-1.464;2022-09-12T17:06:44;4.03;;;2.45;;
29838;SDS011;18669;53.356;-1.464;2022-09-12T17:09:10;2.45;;;1.83;;
29838;SDS011;18669;53.356;-1.464;2022-09-12T17:11:40;1.88;;;1.67;;
29838;SDS011;18669;53.356;-1.464;2022-09-12T17:14:07;4.13;;;1.60;;
29838;SDS011;18669;53.356;-1.464;2022-09-12T17:16:34;2.83;;;1.95;;
29838;SDS011;18669;53.356;-1.464;2022-09-12T17:19:02;4.50;;;2.30;;
29838;SDS011;18669;53.356;-1.464;2022-09-12T17:21:29;5.05;;;3.22;;
29838;SDS011;18669;53.356;-1.464;2022-09-12T17:23:55;3.10;;;2.78;;
29838;SDS011;18669;53.356;-1.464;2022-09-12T17:26:22;5.53;;;3.10;;
29838;SDS011;18669;53.356;-1.464;2022-09-12T17:28:48;6.13;;;3.78;;
29838;SDS011;18669;53.356;-1.464;2022-09-12T17:31:14;4.55;;;3.75;;
29838;SDS011;18669;53.356;-1.464;2022-09-12T17:33:40;5.95;;;3.72;;
29838;SDS011;18669;53.356;-1.464;2022-09-12T17:36:08;7.43;;;3.92;;
29838;SDS011;18669;53.356;-1.464;2022-09-12T17:38:40;4.40;;;3.60;;
29838;SDS011;18669;53.356;-1.464;2022-09-12T17:43:42;2.13;;;1.80;;
29838;SDS011;18669;53.356;-1.464;2022-09-12T17:46:13;2.28;;;1.20;;
29838;SDS011;18669;53.356;-1.464;2022-09-12T17:48:39;1.27;;;1.17;;